Time;durP1;ratioP1;P1;durP2;ratioP2;P2;SDS_P1;SDS_P2;PMS_P1;PMS_P2;Temp;Humidity;BMP_temperature;BMP_pressure;BME280_temperature;BME280_humidity;BME280_pressure;Samples;Min_cycle;Max_cycle;Signal;HPM_P1;HPM_P2
2021/08/20 00:02:27;;;;;;;3.73;3.40;;;18.40;99.80;;;;;;6060396;23;20855;-90
2021/08/20 00:04:56;;;;;;;3.83;3.53;;;18.40;99.80;;;;;;6131009;23;20445;-91
2021/08/20 00:07:25;;;;;;;4.40;4.00;;;18.40;99.80;;;;;;6141767;23;20521;-89
2021/08/20 00:09:56;;;;;;;4.30;3.17;;;18.40;99.80;;;;;;6138066;23;20438;-92
2021/08/20 00:12:24;;;;;;;4.07;3.67;;;18.30;99.80;;;;;;6138094;23;20501;-93
2021/08/20 00:14:55;;;;;;;3.40;3.10;;;18.30;99.80;;;;;;6149816;23;20533;-92
2021/08/20 00:17:23;;;;;;;4.13;3.77;;;;;;;;;;6146339;23;20438;-95
2021/08/20 00:19:52;;;;;;;3.80;3.13;;;18.20;99.80;;;;;;6150356;23;20452;-92
2021/08/20 00:22:21;;;;;;;4.07;3.17;;;18.20;99.80;;;;;;6155465;23;20516;-92
2021/08/20 00:24:52;;;;;;;4.60;3.57;;;18.20;99.80;;;;;;6167434;23;20455;-92
2021/08/20 00:27:20;;;;;;;3.40;3.10;;;18.20;99.80;;;;;;6167893;23;20425;-93
2021/08/20 00:29:48;;;;;;;4.93;3.40;;;18.20;99.80;;;;;;6168344;23;20425;-95
2021/08/20 00:32:16;;;;;;;6.43;3.87;;;18.20;99.80;;;;;;6143131;23;20835;-92
2021/08/20 00:34:44;;;;;;;5.20;3.00;;;18.10;99.80;;;;;;6149786;23;20437;-92
2021/08/20 00:37:12;;;;;;;3.13;2.83;;;18.10;99.80;;;;;;6155453;23;20509;-94
2021/08/20 00:39:42;;;;;;;5.50;3.63;;;18.20;99.80;;;;;;6155486;23;20457;-91
2021/08/20 00:42:12;;;;;;;3.90;3.50;;;18.20;99.80;;;;;;6154260;23;20449;-92
2021/08/20 00:44:41;;;;;;;3.70;3.30;;;18.20;99.80;;;;;;6135149;23;20433;-93
2021/08/20 00:47:09;;;;;;;4.23;3.30;;;18.20;99.80;;;;;;6131883;23;20441;-93
2021/08/20 00:49:37;;;;;;;4.70;4.17;;;18.20;99.80;;;;;;6153826;23;20445;-92
2021/08/20 00:52:06;;;;;;;5.80;4.83;;;18.20;99.80;;;;;;6146742;23;20874;-92
2021/08/20 00:54:34;;;;;;;3.90;3.60;;;18.20;99.80;;;;;;6162860;23;20421;-93
2021/08/20 00:57:03;;;;;;;9.50;4.90;;;18.20;99.80;;;;;;6161284;23;20468;-94
2021/08/20 00:59:33;;;;;;;8.10;4.40;;;18.20;99.80;;;;;;6158403;23;20460;-93
2021/08/20 01:02:02;;;;;;;4.90;4.40;;;18.20;99.80;;;;;;6140236;23;20442;-92
2021/08/20 01:04:31;;;;;;;7.33;4.70;;;18.20;99.80;;;;;;6149164;23;20470;-92
2021/08/20 01:07:01;;;;;;;6.37;5.77;;;18.20;99.80;;;;;;6150298;23;20441;-93
2021/08/20 01:09:30;;;;;;;6.33;5.60;;;18.30;99.80;;;;;;6159976;23;20511;-92
2021/08/20 01:11:58;;;;;;;6.63;5.73;;;18.30;99.80;;;;;;6148992;23;20445;-93
2021/08/20 01:14:34;;;;;;;8.13;5.70;;;18.30;99.80;;;;;;6145368;23;20468;-93
2021/08/20 01:17:04;;;;;;;9.77;6.13;;;18.30;99.80;;;;;;6143374;23;20463;-93
2021/08/20 01:19:33;;;;;;;5.50;4.83;;;18.30;99.80;;;;;;6147304;23;20532;-93
2021/08/20 01:22:02;;;;;;;9.30;5.30;;;18.30;99.80;;;;;;6152375;23;20532;-93
2021/08/20 01:24:31;;;;;;;4.60;4.20;;;18.20;99.80;;;;;;6143463;23;20437;-93
2021/08/20 01:27:00;;;;;;;4.77;4.30;;;18.20;99.80;;;;;;6156976;23;20455;-93
2021/08/20 01:29:31;;;;;;;8.90;3.97;;;18.10;99.80;;;;;;6131042;23;20453;-93
2021/08/20 01:31:59;;;;;;;5.70;4.27;;;18.10;99.80;;;;;;6149486;23;20475;-93
2021/08/20 01:34:27;;;;;;;4.33;3.83;;;;;;;;;;6146899;23;20517;-93
2021/08/20 01:36:55;;;;;;;4.70;4.10;;;18.10;99.80;;;;;;6146519;23;20488;-92
2021/08/20 01:39:24;;;;;;;9.03;4.67;;;;;;;;;;6155604;23;20473;-92
2021/08/20 01:41:52;;;;;;;5.47;4.90;;;18.00;99.80;;;;;;6160581;23;20454;-94
2021/08/20 01:44:21;;;;;;;4.97;4.03;;;18.10;99.80;;;;;;6147696;23;20433;-92
2021/08/20 01:46:50;;;;;;;4.27;3.87;;;;;;;;;;6140287;23;20466;-95
2021/08/20 01:49:19;;;;;;;6.63;4.60;;;18.10;99.80;;;;;;6148127;23;20437;-92
2021/08/20 01:51:47;;;;;;;7.63;4.63;;;18.10;99.80;;;;;;6154871;23;20511;-93
2021/08/20 01:54:15;;;;;;;4.77;4.37;;;18.10;99.80;;;;;;6157941;23;20444;-93
2021/08/20 01:56:43;;;;;;;7.10;5.30;;;18.10;99.80;;;;;;6161380;23;20441;-93
2021/08/20 01:59:11;;;;;;;5.13;4.63;;;18.10;99.80;;;;;;6158434;23;20445;-92
2021/08/20 02:01:41;;;;;;;3.87;3.47;;;18.10;99.80;;;;;;6163987;23;20504;-92
2021/08/20 02:04:09;;;;;;;4.60;4.20;;;18.10;99.80;;;;;;6165512;23;20465;-93
2021/08/20 02:06:37;;;;;;;5.90;4.27;;;18.00;99.80;;;;;;6165927;23;20395;-93
2021/08/20 02:09:05;;;;;;;4.37;4.00;;;18.00;99.80;;;;;;6167074;23;20466;-92
2021/08/20 02:11:34;;;;;;;5.37;4.23;;;18.00;99.80;;;;;;6169973;23;20417;-93
2021/08/20 02:14:02;;;;;;;4.40;4.00;;;;;;;;;;6170112;23;20509;-93
2021/08/20 02:16:31;;;;;;;4.27;3.10;;;18.00;99.80;;;;;;6170937;23;20447;-92
2021/08/20 02:19:00;;;;;;;4.17;3.77;;;18.00;99.80;;;;;;6166246;23;21001;-90
2021/08/20 02:21:28;;;;;;;4.43;4.03;;;17.90;99.80;;;;;;6163361;23;20811;-91
2021/08/20 02:23:56;;;;;;;5.13;4.17;;;17.90;99.80;;;;;;6163308;23;20420;-91
2021/08/20 02:26:24;;;;;;;8.40;4.70;;;17.80;99.80;;;;;;6163005;23;20516;-92
2021/08/20 02:28:52;;;;;;;7.73;5.63;;;17.70;99.80;;;;;;6162916;23;20501;-95
2021/08/20 02:31:20;;;;;;;6.30;4.70;;;17.70;99.80;;;;;;6162650;23;20421;-92
2021/08/20 02:33:49;;;;;;;5.73;5.13;;;17.70;99.80;;;;;;6163880;23;20441;-92
2021/08/20 02:36:19;;;;;;;4.43;3.93;;;17.70;99.80;;;;;;6115703;23;20463;-92
2021/08/20 02:38:49;;;;;;;5.53;4.77;;;17.70;99.80;;;;;;6154898;23;20948;-92
2021/08/20 02:41:18;;;;;;;5.30;4.77;;;17.70;99.80;;;;;;6158791;23;20443;-95
2021/08/20 02:43:46;;;;;;;5.93;4.63;;;17.70;99.80;;;;;;6142066;23;20525;-92
2021/08/20 02:46:14;;;;;;;4.70;4.00;;;17.70;99.80;;;;;;6146719;23;20441;-92
2021/08/20 02:48:43;;;;;;;6.53;4.83;;;17.70;99.80;;;;;;6148649;23;20433;-94
2021/08/20 02:51:12;;;;;;;6.70;4.40;;;17.70;99.80;;;;;;6151637;23;20439;-93
2021/08/20 02:53:42;;;;;;;7.10;4.80;;;17.70;99.80;;;;;;6152409;23;20444;-93
2021/08/20 02:56:10;;;;;;;4.93;4.40;;;17.70;99.80;;;;;;6154178;23;20466;-93
2021/08/20 02:58:39;;;;;;;7.10;6.10;;;17.70;99.80;;;;;;6156742;23;20456;-93
2021/08/20 03:01:07;;;;;;;5.20;4.70;;;17.70;99.80;;;;;;6156176;23;20441;-94
2021/08/20 03:03:35;;;;;;;5.77;5.27;;;17.60;99.80;;;;;;6148257;23;20460;-93
2021/08/20 03:06:03;;;;;;;11.10;5.40;;;17.60;99.80;;;;;;6148490;23;20525;-93
2021/08/20 03:08:31;;;;;;;5.57;4.53;;;17.60;99.80;;;;;;6149940;23;20501;-93
2021/08/20 03:11:00;;;;;;;6.03;5.00;;;17.50;99.80;;;;;;6155714;23;20508;-93
2021/08/20 03:13:29;;;;;;;6.30;5.40;;;17.40;99.80;;;;;;6154283;23;20767;-93
2021/08/20 03:15:57;;;;;;;5.67;4.90;;;17.40;99.80;;;;;;6142769;23;20437;-93
2021/08/20 03:18:25;;;;;;;8.60;5.70;;;17.30;99.80;;;;;;6135608;23;20520;-93
2021/08/20 03:20:53;;;;;;;7.10;5.20;;;;;;;;;;6138682;23;20830;-92
2021/08/20 03:23:21;;;;;;;5.87;4.63;;;17.30;99.80;;;;;;6129046;23;20437;-93
2021/08/20 03:25:49;;;;;;;5.53;4.90;;;17.30;99.80;;;;;;6144533;23;20516;-93
2021/08/20 03:28:19;;;;;;;6.03;5.10;;;17.20;99.80;;;;;;6132895;23;20976;-93
2021/08/20 03:30:47;;;;;;;8.00;5.20;;;17.20;99.80;;;;;;6132881;23;20508;-93
2021/08/20 03:33:15;;;;;;;5.80;5.20;;;17.20;99.80;;;;;;6144967;23;20437;-92
2021/08/20 03:35:43;;;;;;;5.40;4.90;;;17.10;99.80;;;;;;6144342;23;20441;-93
2021/08/20 03:38:11;;;;;;;6.23;5.63;;;17.00;99.80;;;;;;6135580;23;20527;-92
2021/08/20 03:40:39;;;;;;;6.30;4.50;;;17.00;99.80;;;;;;6150800;23;20445;-92
2021/08/20 03:43:07;;;;;;;5.73;5.00;;;;;;;;;;6151471;23;20440;-93
2021/08/20 03:45:37;;;;;;;6.47;5.20;;;16.80;99.80;;;;;;6144933;23;20499;-93
2021/08/20 03:48:05;;;;;;;6.10;4.60;;;16.80;99.80;;;;;;6146217;23;20441;-92
2021/08/20 03:50:33;;;;;;;6.40;5.30;;;16.70;99.80;;;;;;6132601;23;20443;-92
2021/08/20 03:53:01;;;;;;;9.63;5.10;;;16.70;99.80;;;;;;6136540;23;20439;-92
2021/08/20 03:55:35;;;;;;;6.17;5.60;;;16.80;99.80;;;;;;6145825;23;20436;-92
2021/08/20 03:58:04;;;;;;;8.20;5.40;;;16.80;99.80;;;;;;6132088;23;20447;-92
2021/08/20 04:00:32;;;;;;;7.03;5.70;;;16.80;99.80;;;;;;6125134;23;20455;-93
2021/08/20 04:03:01;;;;;;;5.70;5.20;;;16.90;99.80;;;;;;6136787;23;20440;-92
2021/08/20 04:05:30;;;;;;;6.23;5.60;;;16.80;99.80;;;;;;6114014;23;20940;-92
2021/08/20 04:07:58;;;;;;;6.00;5.20;;;16.90;99.80;;;;;;6112182;23;20442;-89
2021/08/20 04:10:26;;;;;;;7.23;5.20;;;16.90;99.80;;;;;;6138032;23;20504;-88
2021/08/20 04:12:54;;;;;;;6.57;5.17;;;16.80;99.80;;;;;;6138606;23;20448;-89
2021/08/20 04:15:23;;;;;;;6.30;5.30;;;16.70;99.80;;;;;;6146719;23;21045;-89
2021/08/20 04:17:51;;;;;;;7.13;4.73;;;16.70;99.80;;;;;;6137597;23;20512;-89
2021/08/20 04:20:20;;;;;;;6.07;5.47;;;16.70;99.80;;;;;;6118421;23;20456;-89
2021/08/20 04:22:48;;;;;;;7.50;5.40;;;16.60;99.80;;;;;;6124361;23;21074;-89
2021/08/20 04:25:17;;;;;;;6.20;5.30;;;16.50;99.80;;;;;;6144208;23;20956;-88
2021/08/20 04:27:45;;;;;;;10.43;5.27;;;16.50;99.80;;;;;;6125158;23;20454;-88
2021/08/20 04:30:13;;;;;;;7.90;5.40;;;16.50;99.80;;;;;;6122914;23;20506;-89
2021/08/20 04:32:41;;;;;;;6.03;5.30;;;16.40;99.80;;;;;;6120559;23;20450;-88
2021/08/20 04:35:10;;;;;;;5.80;5.20;;;16.30;99.80;;;;;;6131611;23;20435;-89
2021/08/20 04:37:39;;;;;;;6.37;5.73;;;16.40;99.80;;;;;;6113295;23;20519;-88
2021/08/20 04:40:10;;;;;;;6.40;5.70;;;16.30;99.80;;;;;;6138857;23;20440;-89
2021/08/20 04:42:38;;;;;;;7.07;5.73;;;16.20;99.80;;;;;;6143948;23;20445;-88
2021/08/20 04:45:07;;;;;;;6.37;5.73;;;16.30;99.80;;;;;;6143467;23;20520;-89
2021/08/20 04:47:35;;;;;;;13.07;5.00;;;16.20;99.80;;;;;;6143318;23;20440;-89
2021/08/20 04:50:04;;;;;;;6.53;5.37;;;16.20;99.80;;;;;;6140375;23;20443;-88
2021/08/20 04:52:32;;;;;;;11.00;5.47;;;16.20;99.80;;;;;;6138606;23;20448;-89
2021/08/20 04:55:02;;;;;;;10.57;5.70;;;16.20;99.80;;;;;;6143352;23;20447;-88
2021/08/20 04:57:30;;;;;;;5.33;4.43;;;16.30;99.80;;;;;;6145396;23;20439;-88
2021/08/20 04:59:58;;;;;;;8.90;5.00;;;16.30;99.80;;;;;;6124626;23;21041;-89
2021/08/20 05:02:27;;;;;;;7.13;5.47;;;16.30;99.80;;;;;;6089230;23;20503;-88
2021/08/20 05:04:56;;;;;;;10.57;5.80;;;16.40;99.80;;;;;;6137247;23;20531;-88
2021/08/20 05:07:24;;;;;;;6.90;5.20;;;16.50;99.80;;;;;;6121498;23;20444;-89
2021/08/20 05:09:53;;;;;;;7.20;5.37;;;16.50;99.80;;;;;;6137114;23;20454;-88
2021/08/20 05:12:22;;;;;;;7.47;5.40;;;16.60;99.80;;;;;;6133007;23;20452;-88
2021/08/20 05:14:50;;;;;;;8.83;5.43;;;16.60;99.80;;;;;;6129667;23;20448;-88
2021/08/20 05:17:18;;;;;;;7.77;5.40;;;16.70;99.80;;;;;;6135441;23;20436;-88
2021/08/20 05:19:46;;;;;;;6.07;5.33;;;16.70;99.80;;;;;;6135435;23;20443;-87
2021/08/20 05:22:14;;;;;;;8.27;5.67;;;16.80;99.80;;;;;;6115936;23;20449;-88
2021/08/20 05:24:42;;;;;;;7.90;6.00;;;16.80;99.80;;;;;;6141423;23;20447;-89
2021/08/20 05:27:09;;;;;;;5.50;4.80;;;16.90;99.80;;;;;;6141418;23;21081;-88
2021/08/20 05:29:39;;;;;;;5.97;5.30;;;16.90;99.80;;;;;;6145609;23;20453;-85
2021/08/20 05:32:09;;;;;;;7.50;5.33;;;17.00;99.80;;;;;;6143304;23;20441;-85
2021/08/20 05:34:37;;;;;;;5.93;5.30;;;17.00;99.80;;;;;;6142620;23;20926;-85
2021/08/20 05:37:05;;;;;;;6.30;5.50;;;17.10;99.80;;;;;;6118492;23;20444;-85
2021/08/20 05:39:33;;;;;;;7.10;5.50;;;17.10;99.80;;;;;;6149858;23;20440;-86
2021/08/20 05:42:02;;;;;;;8.00;5.90;;;17.10;99.80;;;;;;6124304;23;20519;-86
2021/08/20 05:44:30;;;;;;;6.40;5.23;;;17.10;99.80;;;;;;6137962;23;20443;-86
2021/08/20 05:46:59;;;;;;;10.37;5.10;;;17.10;99.80;;;;;;6130163;23;20441;-87
2021/08/20 05:49:27;;;;;;;7.13;5.30;;;17.00;99.80;;;;;;6131876;23;20445;-85
2021/08/20 05:51:55;;;;;;;8.40;5.90;;;17.00;99.80;;;;;;6136025;23;20440;-86
2021/08/20 05:54:23;;;;;;;7.60;5.80;;;17.00;99.80;;;;;;6142501;23;20428;-86
2021/08/20 05:56:51;;;;;;;7.03;5.20;;;17.00;99.80;;;;;;6147566;23;20781;-87
2021/08/20 05:59:19;;;;;;;9.40;5.67;;;17.10;99.80;;;;;;6149125;23;20441;-86
2021/08/20 06:01:47;;;;;;;7.10;5.80;;;17.10;99.80;;;;;;6140277;23;20433;-86
2021/08/20 06:04:17;;;;;;;6.20;5.60;;;17.30;99.80;;;;;;6122120;23;20476;-80
2021/08/20 06:06:45;;;;;;;8.87;5.50;;;17.30;99.80;;;;;;6132926;23;20433;-80
2021/08/20 06:09:13;;;;;;;5.03;4.60;;;17.40;99.80;;;;;;6146008;23;20448;-86
2021/08/20 06:11:41;;;;;;;6.30;5.20;;;17.40;99.80;;;;;;6138925;23;20460;-86
2021/08/20 06:14:09;;;;;;;6.23;5.40;;;17.50;99.80;;;;;;6144722;23;20444;-85
2021/08/20 06:16:37;;;;;;;6.50;5.53;;;17.50;99.80;;;;;;6139462;23;20840;-85
2021/08/20 06:19:05;;;;;;;5.50;5.00;;;17.50;99.80;;;;;;6138368;23;20444;-86
2021/08/20 06:21:34;;;;;;;6.77;5.27;;;17.70;99.80;;;;;;6139549;23;20440;-86
2021/08/20 06:24:02;;;;;;;5.60;5.10;;;17.90;99.80;;;;;;6142046;23;20793;-85
2021/08/20 06:26:30;;;;;;;5.17;4.57;;;18.10;99.80;;;;;;6146795;23;20442;-86
2021/08/20 06:28:58;;;;;;;5.00;4.50;;;18.10;99.80;;;;;;6147863;23;20448;-86
2021/08/20 06:31:26;;;;;;;5.60;4.80;;;18.20;99.80;;;;;;6148612;23;20444;-86
2021/08/20 06:33:58;;;;;;;5.00;4.50;;;18.30;99.80;;;;;;6140214;23;20835;-86
2021/08/20 06:36:26;;;;;;;5.03;4.30;;;18.40;99.80;;;;;;6135277;23;20442;-86
2021/08/20 06:38:55;;;;;;;6.93;4.50;;;18.50;99.80;;;;;;6143723;23;20480;-86
2021/08/20 06:41:23;;;;;;;4.30;3.90;;;18.50;99.80;;;;;;6149397;23;20450;-86
2021/08/20 06:43:51;;;;;;;4.30;3.93;;;18.60;99.80;;;;;;6144773;23;20822;-86
2021/08/20 06:46:19;;;;;;;4.47;4.07;;;18.80;99.80;;;;;;6127957;23;20520;-86
2021/08/20 06:48:47;;;;;;;5.47;3.70;;;19.00;99.80;;;;;;6141082;23;20445;-86
2021/08/20 06:51:19;;;;;;;4.80;4.33;;;19.20;99.80;;;;;;6138661;23;20437;-86
2021/08/20 06:53:47;;;;;;;5.77;4.43;;;19.30;99.80;;;;;;6140679;23;20442;-86
2021/08/20 06:56:16;;;;;;;4.80;4.30;;;19.40;99.80;;;;;;6137053;23;20438;-86
2021/08/20 06:58:44;;;;;;;4.53;4.20;;;19.40;99.80;;;;;;6124154;23;20988;-86
2021/08/20 07:01:12;;;;;;;7.00;4.57;;;19.30;99.80;;;;;;6131053;23;20440;-87
2021/08/20 07:03:40;;;;;;;4.70;4.27;;;19.30;99.80;;;;;;6118333;23;20445;-87
2021/08/20 07:06:09;;;;;;;4.97;4.10;;;19.10;99.80;;;;;;6119483;23;20474;-87
2021/08/20 07:08:37;;;;;;;5.30;4.33;;;19.00;99.80;;;;;;6138117;23;20457;-87
2021/08/20 07:11:05;;;;;;;4.97;4.57;;;18.80;99.80;;;;;;6148037;23;20429;-87
2021/08/20 07:13:34;;;;;;;5.80;5.10;;;18.90;99.80;;;;;;6148737;23;20445;-84
2021/08/20 07:16:02;;;;;;;9.63;4.30;;;18.90;99.80;;;;;;6144055;23;20774;-83
2021/08/20 07:18:30;;;;;;;5.23;4.73;;;19.00;99.80;;;;;;6143922;23;20446;-83
2021/08/20 07:20:58;;;;;;;8.30;3.60;;;19.10;99.80;;;;;;6127993;23;20442;-83
2021/08/20 07:23:26;;;;;;;4.20;3.80;;;19.20;99.80;;;;;;6142497;23;20445;-83
2021/08/20 07:25:54;;;;;;;6.10;3.93;;;19.40;99.80;;;;;;6127552;23;20445;-83
2021/08/20 07:28:22;;;;;;;6.00;3.60;;;19.60;99.80;;;;;;6099926;23;20476;-83
2021/08/20 07:30:51;;;;;;;8.03;3.70;;;19.70;99.80;;;;;;6090905;23;20445;-83
2021/08/20 07:33:21;;;;;;;3.50;3.20;;;19.70;99.80;;;;;;6099634;23;20477;-83
2021/08/20 07:35:49;;;;;;;3.83;3.53;;;19.80;99.80;;;;;;6117709;23;20438;-83
2021/08/20 07:38:17;;;;;;;6.23;3.30;;;19.80;99.80;;;;;;6144595;23;20445;-83
2021/08/20 07:40:45;;;;;;;3.83;3.20;;;19.80;99.80;;;;;;6149134;23;20678;-85
2021/08/20 07:43:13;;;;;;;4.03;3.73;;;19.90;99.80;;;;;;6153672;23;20642;-85
2021/08/20 07:45:42;;;;;;;7.13;3.93;;;19.90;99.80;;;;;;6155261;23;20803;-85
2021/08/20 07:48:12;;;;;;;8.37;3.63;;;19.90;99.80;;;;;;6135609;23;20445;-85
2021/08/20 07:50:41;;;;;;;5.60;4.60;;;19.90;99.80;;;;;;6143149;23;20453;-85
2021/08/20 07:53:09;;;;;;;4.90;3.47;;;20.00;99.80;;;;;;6145398;23;20441;-85
2021/08/20 07:55:37;;;;;;;4.20;3.80;;;20.00;99.80;;;;;;6150190;23;20465;-85
2021/08/20 07:58:05;;;;;;;4.87;4.40;;;20.20;99.80;;;;;;6145593;23;20445;-85
2021/08/20 08:00:33;;;;;;;5.20;3.50;;;20.20;99.80;;;;;;6118630;23;20494;-84
2021/08/20 08:03:01;;;;;;;3.67;3.27;;;20.50;99.80;;;;;;6100523;23;20508;-84
2021/08/20 08:05:32;;;;;;;4.70;4.03;;;20.60;99.80;;;;;;6141483;23;20465;-85
2021/08/20 08:08:01;;;;;;;4.90;3.83;;;20.60;99.80;;;;;;6143076;23;20452;-86
2021/08/20 08:10:29;;;;;;;3.77;3.00;;;20.50;99.80;;;;;;6154116;23;20521;-86
2021/08/20 08:12:57;;;;;;;3.60;2.97;;;20.50;99.80;;;;;;6160261;23;20466;-87
2021/08/20 08:15:26;;;;;;;5.33;3.97;;;20.50;99.80;;;;;;6155193;23;20437;-86
2021/08/20 08:17:55;;;;;;;3.87;3.47;;;20.50;99.80;;;;;;6153394;23;20505;-87
2021/08/20 08:20:23;;;;;;;5.43;2.97;;;20.60;99.80;;;;;;6150965;23;20437;-86
2021/08/20 08:22:53;;;;;;;6.17;3.33;;;20.70;99.80;;;;;;6139304;23;20513;-87
2021/08/20 08:25:23;;;;;;;3.70;3.40;;;20.70;99.80;;;;;;6152889;23;20433;-87
2021/08/20 08:27:56;;;;;;;3.03;2.73;;;20.60;99.80;;;;;;6157236;23;20437;-87
2021/08/20 08:30:27;;;;;;;3.93;3.07;;;20.60;99.80;;;;;;6135166;23;20501;-86
2021/08/20 08:32:55;;;;;;;4.63;3.30;;;20.80;99.80;;;;;;6126957;23;20481;-87
2021/08/20 08:35:28;;;;;;;5.43;3.47;;;20.90;99.80;;;;;;6108223;23;20469;-87
2021/08/20 08:38:04;;;;;;;6.47;3.60;;;21.00;99.80;;;;;;6103531;23;20984;-87
2021/08/20 08:40:33;;;;;;;3.47;3.27;;;20.90;99.80;;;;;;6126258;23;20441;-86
2021/08/20 08:43:03;;;;;;;3.43;3.13;;;21.00;99.80;;;;;;6139863;23;20434;-87
2021/08/20 08:45:32;;;;;;;2.70;2.50;;;21.20;99.80;;;;;;6145527;23;20462;-87
2021/08/20 08:48:02;;;;;;;3.40;3.10;;;21.50;99.70;;;;;;6128238;23;20441;-81
2021/08/20 08:50:31;;;;;;;2.63;2.43;;;21.60;99.00;;;;;;6135807;23;20459;-86
2021/08/20 08:52:59;;;;;;;3.50;3.20;;;21.80;98.10;;;;;;6129566;23;20437;-87
2021/08/20 08:55:28;;;;;;;4.20;2.63;;;21.90;99.30;;;;;;6144840;23;20442;-86
2021/08/20 08:57:56;;;;;;;2.90;2.60;;;21.80;99.60;;;;;;6155728;23;20449;-86
2021/08/20 09:00:32;;;;;;;5.83;3.60;;;21.70;99.10;;;;;;6143301;23;20533;-87
2021/08/20 09:03:00;;;;;;;3.90;3.33;;;21.60;99.50;;;;;;6130085;23;20434;-86
2021/08/20 09:05:42;;;;;;;3.77;2.53;;;21.50;98.80;;;;;;6121986;23;21051;-88
2021/08/20 09:08:14;;;;;;;3.53;3.23;;;21.60;98.60;;;;;;6138704;23;21140;-87
2021/08/20 09:10:52;;;;;;;5.03;3.37;;;21.60;98.80;;;;;;6110146;23;20434;-88
2021/08/20 09:13:22;;;;;;;3.13;2.90;;;21.50;98.70;;;;;;6105252;23;20438;-87
2021/08/20 09:16:06;;;;;;;3.10;2.90;;;21.50;98.70;;;;;;6100611;23;20846;-88
2021/08/20 09:18:34;;;;;;;4.47;3.67;;;21.20;99.40;;;;;;6102308;23;20829;-87
2021/08/20 09:21:02;;;;;;;2.70;2.50;;;21.20;99.40;;;;;;6091596;23;20447;-87
2021/08/20 09:23:31;;;;;;;4.73;3.17;;;21.20;99.40;;;;;;6129694;23;20967;-87
2021/08/20 09:26:00;;;;;;;3.47;3.17;;;21.60;98.00;;;;;;6118085;23;20449;-87
2021/08/20 09:28:30;;;;;;;3.53;3.23;;;21.90;98.30;;;;;;6118742;23;20478;-88
2021/08/20 09:31:11;;;;;;;3.20;2.90;;;22.00;97.30;;;;;;6103684;23;20458;-88
2021/08/20 09:33:48;;;;;;;4.57;3.20;;;22.30;97.00;;;;;;6089980;23;20935;-88
2021/08/20 09:36:17;;;;;;;3.67;3.37;;;22.50;94.20;;;;;;6096933;23;20441;-88
2021/08/20 09:38:48;;;;;;;5.10;3.40;;;22.60;94.80;;;;;;6091454;23;20443;-86
2021/08/20 09:41:26;;;;;;;5.57;4.07;;;22.50;94.80;;;;;;6107229;23;20510;-86
2021/08/20 09:43:56;;;;;;;4.40;3.80;;;22.50;93.70;;;;;;6095416;23;20451;-86
2021/08/20 09:46:24;;;;;;;3.27;2.97;;;22.60;94.70;;;;;;6100969;23;20446;-86
2021/08/20 09:48:55;;;;;;;3.50;3.20;;;22.70;95.00;;;;;;6096226;23;20453;-86
2021/08/20 09:51:43;;;;;;;3.63;3.40;;;22.80;95.10;;;;;;6116345;23;20521;-86
2021/08/20 09:54:14;;;;;;;4.70;3.70;;;23.10;92.80;;;;;;6108724;23;20442;-86
2021/08/20 09:57:00;;;;;;;4.30;3.87;;;23.10;92.00;;;;;;6125890;23;20442;-85
2021/08/20 09:59:30;;;;;;;4.00;3.70;;;23.10;92.60;;;;;;6118603;23;20509;-86
2021/08/20 10:02:01;;;;;;;5.03;4.20;;;23.30;92.10;;;;;;6125081;23;20532;-86
2021/08/20 10:04:31;;;;;;;4.33;3.47;;;23.60;92.90;;;;;;6097248;23;20483;-86
2021/08/20 10:07:01;;;;;;;5.00;3.70;;;23.90;91.00;;;;;;6095674;23;20467;-86
2021/08/20 10:09:30;;;;;;;4.50;3.27;;;23.90;91.00;;;;;;6137776;23;20456;-86
2021/08/20 10:12:01;;;;;;;3.80;3.50;;;24.30;88.50;;;;;;6136393;23;20517;-86
2021/08/20 10:14:30;;;;;;;3.67;2.90;;;24.40;89.00;;;;;;6128573;23;20457;-86
2021/08/20 10:16:58;;;;;;;9.17;4.30;;;24.40;88.00;;;;;;6125353;23;20531;-86
2021/08/20 10:19:27;;;;;;;3.27;3.03;;;24.40;88.30;;;;;;6117675;23;20469;-87
2021/08/20 10:21:55;;;;;;;4.40;3.20;;;24.40;88.30;;;;;;6126184;23;20445;-86
2021/08/20 10:24:23;;;;;;;4.20;3.80;;;;;;;;;;6103572;23;21067;-86
2021/08/20 10:26:55;;;;;;;3.47;3.17;;;25.30;86.90;;;;;;6112481;23;20519;-86
2021/08/20 10:29:26;;;;;;;4.63;3.87;;;25.60;87.80;;;;;;6128275;23;20463;-86
2021/08/20 10:31:56;;;;;;;4.60;3.60;;;25.70;84.10;;;;;;6087467;23;20507;-85
2021/08/20 10:34:39;;;;;;;2.87;2.67;;;25.70;84.10;;;;;;6129786;23;20439;-87
2021/08/20 10:37:12;;;;;;;5.10;2.83;;;25.20;85.90;;;;;;6117711;23;20441;-86
2021/08/20 10:39:41;;;;;;;5.77;3.77;;;25.20;86.00;;;;;;6149944;23;20440;-86
2021/08/20 10:42:11;;;;;;;3.87;3.57;;;24.80;85.00;;;;;;6149766;23;20453;-86
2021/08/20 10:44:43;;;;;;;4.40;4.00;;;24.70;85.70;;;;;;6125630;23;20444;-86
2021/08/20 10:47:23;;;;;;;7.63;4.57;;;24.90;84.20;;;;;;6129207;23;20519;-87
2021/08/20 10:49:52;;;;;;;4.10;3.40;;;25.00;84.70;;;;;;6105069;23;20446;-86
2021/08/20 10:52:28;;;;;;;4.23;3.27;;;25.30;85.40;;;;;;6096426;23;20479;-86
2021/08/20 10:55:24;;;;;;;5.33;3.73;;;25.30;85.50;;;;;;6125151;23;20467;-86
2021/08/20 10:58:03;;;;;;;4.10;3.70;;;26.30;83.20;;;;;;6113710;23;20483;-87
2021/08/20 11:00:34;;;;;;;4.17;3.60;;;26.90;82.90;;;;;;6073388;23;20444;-86
2021/08/20 11:03:04;;;;;;;3.70;2.93;;;26.90;83.00;;;;;;6128073;23;20441;-86
2021/08/20 11:05:47;;;;;;;4.03;3.73;;;27.10;81.00;;;;;;6094077;23;20772;-86
2021/08/20 11:08:34;;;;;;;3.80;3.07;;;27.10;81.90;;;;;;6128412;23;20814;-86
2021/08/20 11:11:03;;;;;;;4.13;3.63;;;26.90;79.90;;;;;;6150395;23;20424;-85
2021/08/20 11:13:31;;;;;;;3.73;3.40;;;26.60;82.10;;;;;;6149100;23;20516;-85
2021/08/20 11:16:02;;;;;;;4.20;3.80;;;26.20;83.60;;;;;;6124531;23;20441;-86
2021/08/20 11:18:46;;;;;;;3.70;3.40;;;25.90;83.40;;;;;;6092353;23;20490;-85
2021/08/20 11:21:43;;;;;;;3.67;3.23;;;25.50;83.70;;;;;;6107710;23;20454;-85
2021/08/20 11:24:19;;;;;;;4.03;3.63;;;25.20;85.20;;;;;;6135686;23;20819;-85
2021/08/20 11:26:47;;;;;;;4.37;3.87;;;25.30;85.90;;;;;;6122862;23;20440;-86
2021/08/20 11:29:17;;;;;;;5.90;4.20;;;25.60;84.60;;;;;;6098833;23;20871;-86
2021/08/20 11:31:47;;;;;;;3.77;3.47;;;26.00;83.80;;;;;;6105411;23;20437;-86
2021/08/20 11:34:15;;;;;;;4.43;3.90;;;26.30;82.60;;;;;;6106603;23;20559;-86
2021/08/20 11:37:00;;;;;;;4.73;3.53;;;26.70;83.40;;;;;;6076210;23;20465;-86
2021/08/20 11:39:31;;;;;;;3.93;3.63;;;27.30;80.90;;;;;;6144273;23;20510;-86
2021/08/20 11:42:10;;;;;;;3.57;3.27;;;27.70;80.90;;;;;;6150073;23;20581;-86
2021/08/20 11:44:41;;;;;;;3.27;2.97;;;;;;;;;;6152014;23;20444;-86
2021/08/20 11:47:16;;;;;;;3.80;3.40;;;27.20;79.30;;;;;;6136844;23;20442;-86
2021/08/20 11:49:44;;;;;;;3.50;3.20;;;26.70;80.60;;;;;;6107005;23;20488;-86
2021/08/20 11:52:12;;;;;;;3.63;3.33;;;26.60;81.00;;;;;;6125187;23;20440;-86
2021/08/20 11:54:41;;;;;;;2.37;2.27;;;27.00;81.20;;;;;;6152866;23;20504;-86
2021/08/20 11:57:09;;;;;;;3.10;2.63;;;;;;;;;;6136434;23;20445;-86
2021/08/20 11:59:37;;;;;;;3.93;3.00;;;31.50;70.90;;;;;;6099755;23;20529;-86
2021/08/20 12:02:06;;;;;;;2.93;2.70;;;;;;;;;;6094966;23;20505;-86
2021/08/20 12:04:38;;;;;;;5.67;2.80;;;;;;;;;;6108798;23;20435;-86
2021/08/20 12:07:06;;;;;;;2.83;2.63;;;36.40;59.00;;;;;;6120232;23;20520;-84
2021/08/20 12:09:35;;;;;;;2.30;2.10;;;37.10;56.90;;;;;;6091931;23;20842;-84
2021/08/20 12:12:04;;;;;;;3.50;2.50;;;37.80;55.90;;;;;;6111904;23;20481;-87
2021/08/20 12:14:53;;;;;;;2.20;2.10;;;38.60;55.80;;;;;;6075638;23;20439;-87
2021/08/20 12:17:23;;;;;;;2.73;2.53;;;39.10;53.50;;;;;;6114193;23;20439;-87
2021/08/20 12:19:52;;;;;;;3.87;2.00;;;39.40;53.50;;;;;;6110813;23;20437;-87
2021/08/20 12:22:21;;;;;;;3.00;2.10;;;39.20;53.80;;;;;;6087001;23;21017;-87
2021/08/20 12:24:52;;;;;;;2.30;2.10;;;39.20;52.90;;;;;;6120547;23;20459;-87
2021/08/20 12:27:21;;;;;;;6.63;1.80;;;39.60;51.20;;;;;;6114547;23;20435;-87
2021/08/20 12:30:08;;;;;;;2.30;2.10;;;40.00;51.20;;;;;;6085822;23;20435;-87
2021/08/20 12:32:38;;;;;;;3.17;2.27;;;40.40;50.90;;;;;;6101457;23;20446;-87
2021/08/20 12:35:09;;;;;;;2.53;2.40;;;39.20;52.10;;;;;;6100743;23;20449;-87
2021/08/20 12:38:10;;;;;;;2.30;2.10;;;38.40;53.50;;;;;;6071941;23;20438;-87
2021/08/20 12:40:41;;;;;;;3.87;2.00;;;37.70;54.20;;;;;;6081813;23;20445;-87
2021/08/20 12:43:26;;;;;;;2.10;2.00;;;38.30;53.80;;;;;;6073440;23;20592;-87
2021/08/20 12:46:13;;;;;;;3.00;2.03;;;38.40;51.10;;;;;;6105321;23;20466;-86
2021/08/20 12:48:43;;;;;;;2.27;2.17;;;36.10;56.90;;;;;;6071770;23;21282;-86
2021/08/20 12:51:14;;;;;;;2.10;1.90;;;34.10;59.30;;;;;;6075685;23;20449;-86
2021/08/20 12:53:42;;;;;;;2.60;2.40;;;;;;;;;;6121423;23;20442;-86
2021/08/20 12:56:11;;;;;;;2.10;2.00;;;31.30;65.80;;;;;;6113256;23;20434;-86
2021/08/20 12:58:39;;;;;;;2.50;2.10;;;30.90;66.40;;;;;;6113691;23;20446;-86
2021/08/20 13:01:09;;;;;;;2.50;2.30;;;30.70;67.00;;;;;;6097108;23;20442;-86
2021/08/20 13:03:37;;;;;;;2.30;2.03;;;30.40;67.60;;;;;;6093113;23;20439;-86
2021/08/20 13:06:08;;;;;;;2.50;2.30;;;30.30;67.20;;;;;;6103154;23;20435;-86